createdAt,value
2023-01-27T00:00:18.049Z,5.6
2023-01-27T00:01:35.046Z,5.7
2023-01-27T00:02:52.207Z,5.7
2023-01-27T00:04:09.049Z,5.8
2023-01-27T00:05:26.051Z,5.9
2023-01-27T00:06:43.049Z,5.9
2023-01-27T00:08:00.111Z,5.9
2023-01-27T00:09:17.070Z,5.9
2023-01-27T00:10:34.057Z,5.9
2023-01-27T00:11:51.109Z,6
2023-01-27T00:13:08.051Z,6
2023-01-27T00:14:25.053Z,6.1
2023-01-27T00:15:42.089Z,6.1
2023-01-27T00:16:59.087Z,6.2
2023-01-27T00:18:16.075Z,6.2
2023-01-27T00:19:33.114Z,6.2
2023-01-27T00:20:50.069Z,6.3
2023-01-27T00:22:07.062Z,6.3
2023-01-27T00:23:24.106Z,6.3
2023-01-27T00:24:41.090Z,6.3
2023-01-27T00:25:58.077Z,6.2
2023-01-27T00:27:15.104Z,6.2
2023-01-27T00:28:32.073Z,6.1
2023-01-27T00:29:49.134Z,6.2
2023-01-27T00:31:06.202Z,6.2
2023-01-27T00:32:23.078Z,6.2
2023-01-27T00:33:40.093Z,6.1
2023-01-27T00:34:57.153Z,6.1
2023-01-27T00:36:14.091Z,6.2
2023-01-27T00:37:31.092Z,6.2
2023-01-27T00:38:48.096Z,6.2
2023-01-27T00:40:05.121Z,6.1
2023-01-27T00:41:22.098Z,5.9
2023-01-27T00:42:39.112Z,5.6
2023-01-27T00:43:56.082Z,5.4
2023-01-27T00:45:13.161Z,5.3
2023-01-27T00:46:30.149Z,5.3
2023-01-27T00:47:47.114Z,5.4
2023-01-27T00:49:04.101Z,5.5
2023-01-27T00:50:21.144Z,5.6
2023-01-27T00:51:38.154Z,5.8
2023-01-27T00:52:55.107Z,5.8
2023-01-27T00:54:12.227Z,5.9
2023-01-27T00:55:30.273Z,6
2023-01-27T00:56:47.136Z,6.1
2023-01-27T00:58:04.181Z,6.1
2023-01-27T00:59:21.124Z,6.1
2023-01-27T01:00:38.112Z,6.2
2023-01-27T01:01:55.179Z,6.3
2023-01-27T01:03:12.199Z,6.3
2023-01-27T01:04:29.126Z,6.3
2023-01-27T01:05:46.137Z,6.4
2023-01-27T01:07:03.144Z,6.4
2023-01-27T01:08:20.150Z,6.4
2023-01-27T01:09:37.129Z,6.5
2023-01-27T01:10:54.138Z,6.5
2023-01-27T01:12:11.132Z,6.4
2023-01-27T01:13:28.180Z,6.4
2023-01-27T01:14:45.170Z,6.4
2023-01-27T01:16:02.195Z,6.3
2023-01-27T01:17:19.262Z,6.3
2023-01-27T01:18:36.185Z,6.2
2023-01-27T01:19:53.172Z,6.2
2023-01-27T01:21:10.145Z,6.3
2023-01-27T01:22:27.156Z,6.3
2023-01-27T01:23:44.155Z,6.3
2023-01-27T01:25:01.179Z,6.4
2023-01-27T01:26:18.154Z,6.4
2023-01-27T01:27:35.189Z,6.3
2023-01-27T01:28:52.211Z,6.1
2023-01-27T01:30:09.159Z,5.9
2023-01-27T01:31:26.208Z,5.7
2023-01-27T01:32:43.154Z,5.5
2023-01-27T01:34:00.176Z,5.4
2023-01-27T01:35:17.162Z,5.4
2023-01-27T01:36:34.161Z,5.4
2023-01-27T01:37:51.156Z,5.5
2023-01-27T01:39:08.542Z,5.4
2023-01-27T01:40:25.812Z,5.5
2023-01-27T01:41:42.174Z,5.6
2023-01-27T01:42:59.172Z,5.7
2023-01-27T01:44:16.231Z,5.9
2023-01-27T01:45:33.211Z,6.1
2023-01-27T01:46:50.272Z,6.2
2023-01-27T01:48:07.171Z,6.3
2023-01-27T01:49:24.231Z,6.3
2023-01-27T01:50:41.184Z,6.4
2023-01-27T01:51:58.182Z,6.4
2023-01-27T01:53:15.181Z,6.5
2023-01-27T01:54:32.213Z,6.5
2023-01-27T01:55:49.208Z,6.5
2023-01-27T01:57:06.206Z,6.5
2023-01-27T01:58:23.195Z,6.5
2023-01-27T01:59:40.255Z,6.4
2023-01-27T02:00:57.246Z,6.3
2023-01-27T02:02:14.229Z,6.3
2023-01-27T02:03:31.192Z,6.2
2023-01-27T02:04:48.228Z,6.2
2023-01-27T02:06:05.197Z,6.2
2023-01-27T02:07:22.212Z,6.2
2023-01-27T02:08:39.215Z,6.1
2023-01-27T02:09:56.233Z,6.1
2023-01-27T02:11:13.215Z,6.2
2023-01-27T02:12:30.230Z,6.3
2023-01-27T02:13:47.200Z,6.3
2023-01-27T02:15:04.311Z,6.4
2023-01-27T02:16:21.233Z,6.4
2023-01-27T02:17:38.217Z,6.5
2023-01-27T02:18:55.215Z,6.5
2023-01-27T02:20:12.267Z,6.5
2023-01-27T02:21:29.217Z,6.5
2023-01-27T02:22:46.234Z,6.4
2023-01-27T02:24:03.275Z,6.2
2023-01-27T02:25:20.287Z,6
2023-01-27T02:26:37.237Z,5.9
2023-01-27T02:27:54.238Z,5.6
2023-01-27T02:29:11.223Z,5.6
2023-01-27T02:30:28.380Z,5.7
2023-01-27T02:31:45.359Z,5.9
2023-01-27T02:33:02.259Z,5.9
2023-01-27T02:34:19.241Z,6
2023-01-27T02:35:36.298Z,6
2023-01-27T02:36:53.240Z,6.1
2023-01-27T02:38:10.268Z,6.2
2023-01-27T02:39:27.241Z,6.2
2023-01-27T02:40:44.272Z,6.3
2023-01-27T02:42:01.270Z,6.3
2023-01-27T02:43:18.240Z,6.4
2023-01-27T02:44:35.259Z,6.4
2023-01-27T02:45:52.388Z,6.5
2023-01-27T02:47:09.268Z,6.5
2023-01-27T02:48:26.259Z,6.5
2023-01-27T02:49:43.249Z,6.4
2023-01-27T02:51:00.323Z,6.4
2023-01-27T02:52:17.266Z,6.4
2023-01-27T02:53:34.254Z,6.3
2023-01-27T02:54:51.261Z,6.2
2023-01-27T02:56:08.292Z,6.2
2023-01-27T02:57:25.260Z,6.2
2023-01-27T02:58:42.286Z,6.2
2023-01-27T02:59:59.271Z,6.2
2023-01-27T03:01:16.406Z,6.2
2023-01-27T03:02:33.330Z,6.2
2023-01-27T03:03:50.263Z,6.2
2023-01-27T03:05:07.298Z,6.2
2023-01-27T03:06:24.302Z,6.1
2023-01-27T03:07:41.279Z,6.1
2023-01-27T03:08:58.284Z,6.1
2023-01-27T03:10:15.291Z,6.1
2023-01-27T03:11:32.314Z,6.1
2023-01-27T03:12:49.300Z,6.1
2023-01-27T03:14:06.281Z,6.2
2023-01-27T03:15:23.317Z,6.2
2023-01-27T03:16:40.306Z,6.2
2023-01-27T03:17:57.380Z,6.2
2023-01-27T03:19:14.300Z,6.3
2023-01-27T03:20:31.296Z,6.3
2023-01-27T03:21:48.288Z,6.3
2023-01-27T03:23:05.330Z,6.3
2023-01-27T03:24:22.360Z,6.3
2023-01-27T03:25:39.293Z,6.2
2023-01-27T03:26:56.304Z,6.1
2023-01-27T03:28:13.340Z,5.8
2023-01-27T03:29:30.420Z,5.6
2023-01-27T03:30:47.465Z,5.4
2023-01-27T03:32:04.371Z,5.3
2023-01-27T03:33:21.328Z,5.2
2023-01-27T03:34:38.314Z,5.2
2023-01-27T03:35:55.318Z,5.2
2023-01-27T03:37:12.353Z,5.1
2023-01-27T03:38:29.327Z,5
2023-01-27T03:39:46.333Z,5
2023-01-27T03:41:04.243Z,5
2023-01-27T03:42:20.385Z,5
2023-01-27T03:43:37.324Z,5.1
2023-01-27T03:44:54.338Z,5.1
2023-01-27T03:46:11.378Z,5.2
2023-01-27T03:47:28.391Z,5.3
2023-01-27T03:48:45.370Z,5.3
2023-01-27T03:50:02.417Z,5.2
2023-01-27T03:51:19.326Z,5.2
2023-01-27T03:52:36.371Z,5.2
2023-01-27T03:53:53.364Z,5.4
2023-01-27T03:55:10.435Z,5.4
2023-01-27T03:56:27.376Z,5.5
2023-01-27T03:57:44.380Z,5.5
2023-01-27T03:59:01.457Z,5.6
2023-01-27T04:00:18.356Z,5.5
2023-01-27T04:01:35.385Z,5.5
2023-01-27T04:02:52.500Z,5.4
2023-01-27T04:04:09.421Z,5.4
2023-01-27T04:05:26.343Z,5.5
2023-01-27T04:06:43.358Z,5.5
2023-01-27T04:08:00.354Z,5.6
2023-01-27T04:09:17.403Z,5.8
2023-01-27T04:10:34.356Z,5.8
2023-01-27T04:11:51.357Z,5.8
2023-01-27T04:13:08.354Z,5.9
2023-01-27T04:14:25.408Z,5.8
2023-01-27T04:15:42.452Z,5.7
2023-01-27T04:16:59.364Z,5.7
2023-01-27T04:18:16.416Z,5.6
2023-01-27T04:19:33.378Z,5.6
2023-01-27T04:20:50.373Z,5.5
2023-01-27T04:22:07.384Z,5.4
2023-01-27T04:23:24.412Z,5.2
2023-01-27T04:24:41.370Z,4.9
2023-01-27T04:25:59.386Z,4.6
2023-01-27T04:27:15.399Z,4.3
2023-01-27T04:28:43.716Z,4.1
2023-01-27T04:29:49.404Z,4.2
2023-01-27T04:31:06.582Z,4.2
2023-01-27T04:32:23.403Z,4.3
2023-01-27T04:33:40.446Z,4.3
2023-01-27T04:34:57.401Z,4.5
2023-01-27T04:36:14.392Z,4.5
2023-01-27T04:37:31.425Z,4.5
2023-01-27T04:38:48.452Z,4.5
2023-01-27T04:40:05.404Z,4.5
2023-01-27T04:41:22.401Z,4.6
2023-01-27T04:42:39.399Z,4.6
2023-01-27T04:43:56.488Z,4.7
2023-01-27T04:45:13.739Z,4.7
2023-01-27T04:46:30.411Z,4.8
2023-01-27T04:47:47.437Z,4.9
2023-01-27T04:49:04.428Z,4.9
2023-01-27T04:50:21.435Z,4.9
2023-01-27T04:51:38.418Z,5
2023-01-27T04:52:55.416Z,5.1
2023-01-27T04:54:12.403Z,5.2
2023-01-27T04:55:29.468Z,5.2
2023-01-27T04:56:46.416Z,5.2
2023-01-27T04:58:03.418Z,5.3
2023-01-27T04:59:20.445Z,5.2
2023-01-27T05:00:37.469Z,5.2
2023-01-27T05:01:54.569Z,5.1
2023-01-27T05:03:11.527Z,5
2023-01-27T05:04:28.444Z,5
2023-01-27T05:05:45.439Z,4.9
2023-01-27T05:07:02.472Z,4.8
2023-01-27T05:08:19.463Z,4.9
2023-01-27T05:09:36.446Z,4.8
2023-01-27T05:10:53.432Z,4.7
2023-01-27T05:12:10.445Z,4.5
2023-01-27T05:13:27.499Z,4.3
2023-01-27T05:14:44.428Z,4.4
2023-01-27T05:16:01.505Z,4.6
2023-01-27T05:17:18.441Z,4.7
2023-01-27T05:18:35.470Z,4.9
2023-01-27T05:19:52.495Z,5
2023-01-27T05:21:09.469Z,5.2
2023-01-27T05:22:26.574Z,5.4
2023-01-27T05:23:43.447Z,5.5
2023-01-27T05:25:00.489Z,5.5
2023-01-27T05:26:17.512Z,5.5
2023-01-27T05:28:52.458Z,5.6
2023-01-27T05:30:09.453Z,5.6
2023-01-27T05:31:26.799Z,5.6
2023-01-27T05:32:43.461Z,5.6
2023-01-27T05:34:00.476Z,5.6
2023-01-27T05:35:17.477Z,5.5
2023-01-27T05:36:34.481Z,5.5
2023-01-27T05:37:51.521Z,5.5
2023-01-27T05:39:09.049Z,5.6
2023-01-27T05:40:25.464Z,5.7
2023-01-27T05:41:42.545Z,5.7
2023-01-27T05:42:59.480Z,5.7
2023-01-27T05:44:16.502Z,5.7
2023-01-27T05:45:33.534Z,5.7
2023-01-27T05:46:50.541Z,5.7
2023-01-27T05:48:07.483Z,5.6
2023-01-27T05:49:24.479Z,5.3
2023-01-27T05:50:41.533Z,5.2
2023-01-27T05:51:58.489Z,5.1
2023-01-27T05:53:15.488Z,5
2023-01-27T05:54:32.509Z,4.9
2023-01-27T05:55:49.515Z,5
2023-01-27T05:57:06.515Z,5.1
2023-01-27T05:58:23.492Z,5.2
2023-01-27T05:59:40.586Z,5.4
2023-01-27T06:00:57.495Z,5.4
2023-01-27T06:02:14.535Z,5.5
2023-01-27T06:03:31.519Z,5.6
2023-01-27T06:04:48.552Z,5.8
2023-01-27T06:06:05.529Z,5.8
2023-01-27T06:07:22.497Z,5.8
2023-01-27T06:08:39.516Z,5.8
2023-01-27T06:09:56.533Z,5.9
2023-01-27T06:11:13.571Z,5.9
2023-01-27T06:12:30.510Z,6
2023-01-27T06:13:47.512Z,6
2023-01-27T06:15:04.558Z,6.1
2023-01-27T06:16:21.565Z,6.1
2023-01-27T06:17:38.561Z,6.1
2023-01-27T06:18:55.509Z,6.2
2023-01-27T06:20:12.565Z,6.2
2023-01-27T06:21:29.590Z,6.2
2023-01-27T06:22:46.557Z,6.3
2023-01-27T06:24:03.537Z,6.3
2023-01-27T06:25:20.567Z,6.4
2023-01-27T06:26:37.556Z,6.5
2023-01-27T06:27:54.528Z,6.4
2023-01-27T06:29:11.536Z,6.4
2023-01-27T06:30:28.631Z,6.5
2023-01-27T06:31:45.586Z,6.5
2023-01-27T06:33:02.547Z,6.5
2023-01-27T06:34:19.601Z,6.5
2023-01-27T06:35:36.546Z,6.4
2023-01-27T06:36:53.568Z,6.2
2023-01-27T06:38:12.466Z,6
2023-01-27T06:39:27.578Z,5.9
2023-01-27T06:40:44.606Z,5.7
2023-01-27T06:42:01.589Z,5.7
2023-01-27T06:43:18.542Z,5.8
2023-01-27T06:44:35.618Z,5.9
2023-01-27T06:45:52.634Z,6
2023-01-27T06:47:09.549Z,6.1
2023-01-27T06:48:26.554Z,6.2
2023-01-27T06:49:43.595Z,6.3
2023-01-27T06:51:00.585Z,6.3
2023-01-27T06:52:17.658Z,6.3
2023-01-27T06:53:34.557Z,6.3
2023-01-27T06:54:51.586Z,6.4
2023-01-27T06:56:08.599Z,6.4
2023-01-27T06:57:25.574Z,6.4
2023-01-27T06:58:42.578Z,6.4
2023-01-27T06:59:59.611Z,6.4
2023-01-27T07:01:16.630Z,6.4
2023-01-27T07:02:33.600Z,6.4
2023-01-27T07:03:50.573Z,6.3
2023-01-27T07:05:07.606Z,6.3
2023-01-27T07:06:24.570Z,6.3
2023-01-27T07:07:41.612Z,6.3
2023-01-27T07:08:58.573Z,6.3
2023-01-27T07:10:16.065Z,6.3
2023-01-27T07:11:32.648Z,6.4
2023-01-27T07:12:49.590Z,6.4
2023-01-27T07:14:07.965Z,6.5
2023-01-27T07:15:23.585Z,6.5
2023-01-27T07:16:40.653Z,6.5
2023-01-27T07:17:57.589Z,6.5
2023-01-27T07:19:14.594Z,6.5
2023-01-27T07:20:31.603Z,6.4
2023-01-27T07:21:48.648Z,6.4
2023-01-27T07:23:05.624Z,6.4
2023-01-27T07:24:22.742Z,6.4
2023-01-27T07:25:39.610Z,6.3
2023-01-27T07:26:56.634Z,6.1
2023-01-27T07:28:13.631Z,5.9
2023-01-27T07:29:30.644Z,5.6
2023-01-27T07:30:47.689Z,5.2
2023-01-27T07:32:04.728Z,4.9
2023-01-27T07:33:21.619Z,4.6
2023-01-27T07:34:38.611Z,4.4
2023-01-27T07:35:55.676Z,4.4
2023-01-27T07:37:12.637Z,4.5
2023-01-27T07:38:29.701Z,4.5
2023-01-27T07:39:46.629Z,4.6
2023-01-27T07:41:03.652Z,4.7
2023-01-27T07:42:20.618Z,4.7
2023-01-27T07:43:37.655Z,4.7
2023-01-27T07:44:54.625Z,4.9
2023-01-27T07:46:11.747Z,4.9
2023-01-27T07:47:28.633Z,4.9
2023-01-27T07:48:45.644Z,5
2023-01-27T07:50:02.663Z,5.2
2023-01-27T07:51:19.698Z,5.4
2023-01-27T07:52:36.668Z,5.6
2023-01-27T07:53:53.669Z,5.7
2023-01-27T07:55:10.889Z,5.7
2023-01-27T07:56:27.667Z,5.8
2023-01-27T07:57:44.643Z,5.9
2023-01-27T07:59:01.649Z,5.9
2023-01-27T08:00:18.655Z,5.9
2023-01-27T08:01:35.675Z,5.8
2023-01-27T08:02:52.775Z,5.7
2023-01-27T08:04:09.698Z,5.5
2023-01-27T08:05:26.653Z,5.4
2023-01-27T08:06:43.703Z,5.4
2023-01-27T08:08:00.658Z,5.4
2023-01-27T08:09:17.680Z,5.5
2023-01-27T08:10:34.703Z,5.7
2023-01-27T08:11:51.732Z,5.8
2023-01-27T08:13:08.692Z,5.8
2023-01-27T08:14:25.663Z,5.9
2023-01-27T08:15:42.664Z,6
2023-01-27T08:16:59.736Z,6.1
2023-01-27T08:18:16.700Z,6.2
2023-01-27T08:19:33.664Z,6.2
2023-01-27T08:20:50.691Z,6.2
2023-01-27T08:22:07.780Z,6.1
2023-01-27T08:23:24.747Z,6.2
2023-01-27T08:24:41.703Z,6.1
2023-01-27T08:25:58.685Z,6
2023-01-27T08:27:15.695Z,5.9
2023-01-27T08:28:32.710Z,5.9
2023-01-27T08:29:49.699Z,5.7
2023-01-27T08:31:06.728Z,5.4
2023-01-27T08:32:23.739Z,5.3
2023-01-27T08:33:40.719Z,5.2
2023-01-27T08:34:57.717Z,5.2
2023-01-27T08:36:14.702Z,5.1
2023-01-27T08:37:31.723Z,5
2023-01-27T08:38:48.750Z,5.1
2023-01-27T08:40:05.729Z,5
2023-01-27T08:41:22.699Z,4.9
2023-01-27T08:42:39.713Z,5
2023-01-27T08:43:56.742Z,5.1
2023-01-27T08:45:13.763Z,5.4
2023-01-27T08:46:30.716Z,5.6
2023-01-27T08:47:47.716Z,5.6
2023-01-27T08:49:04.733Z,5.7
2023-01-27T08:50:21.793Z,5.7
2023-01-27T08:51:38.759Z,5.8
2023-01-27T08:52:55.739Z,5.8
2023-01-27T08:54:12.753Z,5.8
2023-01-27T08:55:31.205Z,5.9
2023-01-27T08:56:47.743Z,6
2023-01-27T08:58:04.750Z,6.1
2023-01-27T08:59:21.736Z,6
2023-01-27T09:00:38.754Z,6
2023-01-27T09:01:55.754Z,6
2023-01-27T09:03:12.726Z,6
2023-01-27T09:04:29.857Z,6.1
2023-01-27T09:05:46.762Z,6
2023-01-27T09:07:03.758Z,5.9
2023-01-27T09:08:20.730Z,6
2023-01-27T09:09:37.759Z,5.9
2023-01-27T09:10:54.805Z,6
2023-01-27T09:12:11.757Z,6
2023-01-27T09:13:28.771Z,6.1
2023-01-27T09:14:45.767Z,6.3
2023-01-27T09:16:02.887Z,6.3
2023-01-27T09:17:19.815Z,6.3
2023-01-27T09:18:36.775Z,6.2
2023-01-27T09:19:53.752Z,6.1
2023-01-27T09:21:10.751Z,6.1
2023-01-27T09:22:27.854Z,5.8
2023-01-27T09:23:44.753Z,5.4
2023-01-27T09:25:01.761Z,5.1
2023-01-27T09:26:18.773Z,5
2023-01-27T09:27:39.388Z,5.2
2023-01-27T09:28:52.758Z,5.4
2023-01-27T09:30:09.766Z,5.6
2023-01-27T09:31:26.884Z,5.6
2023-01-27T09:32:43.818Z,5.4
2023-01-27T09:34:00.841Z,5.2
2023-01-27T09:35:17.775Z,5.1
2023-01-27T09:36:34.763Z,4.8
2023-01-27T09:37:51.800Z,4.5
2023-01-27T09:39:08.786Z,4.3
2023-01-27T09:40:25.821Z,4.1
2023-01-27T09:41:42.877Z,4
2023-01-27T09:42:59.803Z,3.9
2023-01-27T09:44:16.797Z,4
2023-01-27T09:45:33.809Z,4.2
2023-01-27T09:46:50.844Z,4.3
2023-01-27T09:48:07.842Z,4.4
2023-01-27T09:49:25.595Z,4.4
2023-01-27T09:50:42.788Z,4.3
2023-01-27T09:51:59.853Z,4.3
2023-01-27T09:53:16.787Z,4.3
2023-01-27T09:54:33.796Z,4.2
2023-01-27T09:55:50.791Z,4.2
2023-01-27T09:57:07.842Z,4
2023-01-27T09:58:24.988Z,3.9
2023-01-27T09:59:42.324Z,3.9
2023-01-27T10:00:58.840Z,4
2023-01-27T10:02:15.861Z,4.1
2023-01-27T10:03:32.823Z,4.2
2023-01-27T10:04:49.911Z,4.4
2023-01-27T10:06:06.817Z,4.4
2023-01-27T10:07:24.336Z,4.3
2023-01-27T10:08:40.812Z,4.3
2023-01-27T10:09:57.804Z,4.5
2023-01-27T10:11:14.820Z,4.6
2023-01-27T10:12:31.899Z,4.7
2023-01-27T10:13:48.836Z,4.7
2023-01-27T10:15:05.861Z,4.6
2023-01-27T10:16:22.977Z,4.8
2023-01-27T10:17:39.815Z,4.8
2023-01-27T10:18:56.863Z,4.8
2023-01-27T10:20:14.252Z,4.8
2023-01-27T10:21:30.856Z,4.8
2023-01-27T10:22:47.824Z,4.8
2023-01-27T10:24:04.853Z,5
2023-01-27T10:25:21.871Z,5.2
2023-01-27T10:26:38.886Z,5.4
2023-01-27T10:27:55.856Z,5.6
2023-01-27T10:29:12.909Z,5.8
2023-01-27T10:30:29.966Z,5.9
2023-01-27T10:31:46.940Z,5.9
2023-01-27T10:33:03.849Z,5.8
2023-01-27T10:34:20.866Z,5.6
2023-01-27T10:35:38.301Z,5.4
2023-01-27T10:36:54.843Z,5.1
2023-01-27T10:38:11.843Z,5
2023-01-27T10:39:28.852Z,4.8
2023-01-27T10:40:45.937Z,4.8
2023-01-27T10:42:02.852Z,4.8
2023-01-27T10:43:19.905Z,4.8
2023-01-27T10:44:36.850Z,4.7
2023-01-27T10:45:53.980Z,4.7
2023-01-27T10:47:10.878Z,4.6
2023-01-27T10:48:27.878Z,4.7
2023-01-27T10:49:44.883Z,4.9
2023-01-27T10:51:01.944Z,5
2023-01-27T10:52:18.920Z,5.1
2023-01-27T10:53:35.892Z,5
2023-01-27T10:54:52.880Z,5
2023-01-27T10:56:09.876Z,4.9
2023-01-27T10:57:26.925Z,4.6
2023-01-27T10:58:43.917Z,4.4
2023-01-27T11:00:27.365Z,4.3
2023-01-27T11:01:21.197Z,4.3
2023-01-27T11:02:34.911Z,4.3
2023-01-27T11:03:51.898Z,4.3
2023-01-27T11:05:08.872Z,4.2
2023-01-27T11:06:25.880Z,4
2023-01-27T11:07:43.187Z,3.8
2023-01-27T11:08:59.882Z,3.7
2023-01-27T11:10:16.887Z,3.6
2023-01-27T11:11:33.894Z,3.7
2023-01-27T11:12:50.913Z,3.7
2023-01-27T11:14:07.927Z,3.6
2023-01-27T11:15:24.923Z,3.7
2023-01-27T11:16:41.958Z,3.8
2023-01-27T11:17:58.924Z,3.8
2023-01-27T11:19:15.902Z,3.7
2023-01-27T11:20:32.977Z,3.8
2023-01-27T11:21:58.249Z,3.9
2023-01-27T11:23:06.895Z,3.9
2023-01-27T11:24:24.010Z,3.9
2023-01-27T11:25:40.969Z,3.9
2023-01-27T11:26:57.911Z,3.9
2023-01-27T11:28:14.936Z,4
2023-01-27T11:29:31.944Z,3.9
2023-01-27T11:30:49.008Z,3.8
2023-01-27T11:32:06.104Z,3.7
2023-01-27T11:33:22.933Z,3.6
2023-01-27T11:34:39.919Z,3.6
2023-01-27T11:35:56.923Z,3.7
2023-01-27T11:37:13.964Z,4
2023-01-27T11:38:31.529Z,4.2
2023-01-27T11:39:47.940Z,4.2
2023-01-27T11:41:04.932Z,4
2023-01-27T11:42:21.928Z,3.9
2023-01-27T11:43:38.953Z,3.9
2023-01-27T11:44:55.954Z,3.8
2023-01-27T11:46:12.958Z,3.7
2023-01-27T11:47:29.951Z,3.7
2023-01-27T11:48:46.968Z,3.7
2023-01-27T11:50:03.994Z,3.5
2023-01-27T11:51:20.986Z,3.4
2023-01-27T11:52:37.977Z,3.5
2023-01-27T11:53:55.025Z,3.6
2023-01-27T11:55:11.965Z,3.7
2023-01-27T11:56:28.947Z,3.8
2023-01-27T11:57:45.953Z,4
2023-01-27T11:59:02.992Z,4.1
2023-01-27T12:00:20.017Z,4.2
2023-01-27T12:01:36.957Z,4.4
2023-01-27T12:02:53.960Z,4.4
2023-01-27T12:04:11.041Z,4.5
2023-01-27T12:05:28.006Z,4.6
2023-01-27T12:06:44.965Z,4.7
2023-01-27T12:08:01.979Z,4.9
2023-01-27T12:09:19.019Z,5.1
2023-01-27T12:10:35.969Z,5.2
2023-01-27T12:11:52.968Z,5.3
2023-01-27T12:13:09.974Z,5.1
2023-01-27T12:14:27.029Z,5.1
2023-01-27T12:15:44.005Z,4.9
2023-01-27T12:17:00.977Z,4.7
2023-01-27T12:18:17.997Z,4.5
2023-01-27T12:19:35.043Z,4.4
2023-01-27T12:20:52.005Z,4.4
2023-01-27T12:22:08.983Z,4.7
2023-01-27T12:23:25.984Z,4.8
2023-01-27T12:24:43.056Z,5
2023-01-27T12:25:59.976Z,5.3
2023-01-27T12:27:16.985Z,5.5
2023-01-27T12:28:34.000Z,5.7
2023-01-27T12:29:51.070Z,5.8
2023-01-27T12:31:08.135Z,5.9
2023-01-27T12:32:25.027Z,6
2023-01-27T12:33:42.002Z,6
2023-01-27T12:34:59.026Z,5.9
2023-01-27T12:36:16.013Z,5.8
2023-01-27T12:37:33.006Z,5.6
2023-01-27T12:38:49.995Z,5.7
2023-01-27T12:40:07.074Z,5.8
2023-01-27T12:41:24.066Z,5.9
2023-01-27T12:42:41.026Z,6
2023-01-27T12:43:58.001Z,6
2023-01-27T12:45:15.086Z,6
2023-01-27T12:46:32.105Z,6
2023-01-27T12:47:49.015Z,6
2023-01-27T12:49:06.005Z,6.1
2023-01-27T12:50:23.075Z,6.2
2023-01-27T12:51:40.070Z,6.2
2023-01-27T12:52:57.025Z,6.2
2023-01-27T12:54:14.016Z,6.1
2023-01-27T12:55:31.090Z,5.8
2023-01-27T12:56:48.015Z,5.7
2023-01-27T12:58:05.035Z,5.5
2023-01-27T12:59:22.016Z,5.3
2023-01-27T13:00:39.136Z,5.1
2023-01-27T13:01:56.057Z,5
2023-01-27T13:03:13.065Z,4.9
2023-01-27T13:04:30.073Z,4.9
2023-01-27T13:05:47.061Z,5
2023-01-27T13:07:04.032Z,5.1
2023-01-27T13:08:21.039Z,5.3
2023-01-27T13:09:38.031Z,5.4
2023-01-27T13:10:55.062Z,5.5
2023-01-27T13:12:12.041Z,5.6
2023-01-27T13:13:29.053Z,5.8
2023-01-27T13:14:46.150Z,5.9
2023-01-27T13:16:03.147Z,5.9
2023-01-27T13:17:20.112Z,6
2023-01-27T13:18:37.052Z,6.1
2023-01-27T13:19:54.134Z,6.2
2023-01-27T13:21:11.057Z,6.2
2023-01-27T13:22:28.053Z,6.2
2023-01-27T13:23:45.053Z,6.2
2023-01-27T13:25:02.102Z,6.2
2023-01-27T13:26:19.115Z,6.2
2023-01-27T13:27:36.060Z,6.2
2023-01-27T13:28:53.556Z,6.2
2023-01-27T13:30:10.091Z,6.2
2023-01-27T13:31:27.165Z,6.2
2023-01-27T13:32:44.103Z,6.1
2023-01-27T13:34:01.090Z,6.1
2023-01-27T13:35:18.072Z,6.1
2023-01-27T13:36:35.104Z,6
2023-01-27T13:37:52.148Z,6
2023-01-27T13:39:09.070Z,6.1
2023-01-27T13:40:26.082Z,6.1
2023-01-27T13:41:43.085Z,6.1
2023-01-27T13:43:00.112Z,6.1
2023-01-27T13:44:17.083Z,6
2023-01-27T13:45:34.088Z,6
2023-01-27T13:46:51.160Z,6.1
2023-01-27T13:48:08.155Z,6.1
2023-01-27T13:49:25.115Z,6.1
2023-01-27T13:50:42.099Z,6.1
2023-01-27T13:51:59.106Z,6.1
2023-01-27T13:53:16.217Z,6.1
2023-01-27T13:54:33.101Z,6.1
2023-01-27T13:55:50.107Z,6.1
2023-01-27T13:57:07.105Z,6
2023-01-27T13:58:24.128Z,5.7
2023-01-27T13:59:41.099Z,5.4
2023-01-27T14:00:58.098Z,5.1
2023-01-27T14:02:15.111Z,5
2023-01-27T14:03:32.233Z,4.9
2023-01-27T14:04:49.150Z,4.9
2023-01-27T14:06:06.109Z,4.9
2023-01-27T14:07:23.117Z,5
2023-01-27T14:08:40.135Z,5.1
2023-01-27T14:09:57.114Z,5.2
2023-01-27T14:11:14.127Z,5.2
2023-01-27T14:12:31.107Z,5.2
2023-01-27T14:13:48.181Z,5.2
2023-01-27T14:15:05.136Z,5
2023-01-27T14:16:22.157Z,4.9
2023-01-27T14:17:39.153Z,5
2023-01-27T14:18:56.181Z,5.2
2023-01-27T14:20:13.445Z,5.2
2023-01-27T14:21:40.074Z,5.3
2023-01-27T14:22:47.166Z,5.3
2023-01-27T14:24:04.224Z,5.4
2023-01-27T14:25:21.132Z,5.5
2023-01-27T14:26:38.143Z,5.6
2023-01-27T14:29:12.145Z,5.8
2023-01-27T14:30:29.148Z,5.7
2023-01-27T14:31:46.276Z,5.7
2023-01-27T14:33:03.182Z,5.6
2023-01-27T14:34:20.204Z,5.5
2023-01-27T14:35:37.266Z,5.5
2023-01-27T14:36:54.150Z,5.5
2023-01-27T14:38:11.160Z,5.5
2023-01-27T14:39:28.248Z,5.6
2023-01-27T14:40:45.184Z,5.7
2023-01-27T14:42:02.166Z,5.8
2023-01-27T14:43:19.174Z,5.8
2023-01-27T14:44:43.322Z,5.9
2023-01-27T14:45:53.183Z,5.9
2023-01-27T14:47:10.168Z,5.9
2023-01-27T14:48:27.167Z,6
2023-01-27T14:49:44.192Z,6.1
2023-01-27T14:51:01.271Z,6.3
2023-01-27T14:52:18.178Z,6.3
2023-01-27T14:53:35.173Z,6.3
2023-01-27T14:54:52.173Z,6.4
2023-01-27T14:56:09.202Z,6.2
2023-01-27T14:57:26.270Z,6
2023-01-27T14:58:43.273Z,5.7
2023-01-27T15:00:00.213Z,5.5
2023-01-27T15:01:17.187Z,5.4
2023-01-27T15:02:34.206Z,5.3
2023-01-27T15:03:51.212Z,5.3
2023-01-27T15:05:08.208Z,5.5
2023-01-27T15:06:25.184Z,5.6
2023-01-27T15:07:42.252Z,5.8
2023-01-27T15:08:59.194Z,5.9
2023-01-27T15:10:16.186Z,6
2023-01-27T15:11:33.211Z,6.1
2023-01-27T15:12:50.234Z,6.1
2023-01-27T15:14:07.267Z,6.2
2023-01-27T15:15:24.218Z,6.2
2023-01-27T15:16:41.273Z,6.2
2023-01-27T15:17:58.223Z,6.2
2023-01-27T15:19:15.231Z,6.2
2023-01-27T15:20:32.238Z,6.1
2023-01-27T15:21:49.241Z,6.1
2023-01-27T15:23:06.348Z,6.1
2023-01-27T15:24:23.339Z,6
2023-01-27T15:25:40.236Z,6
2023-01-27T15:26:57.212Z,6.1
2023-01-27T15:28:14.299Z,6.2
2023-01-27T15:29:31.221Z,6.2
2023-01-27T15:30:48.243Z,6.3
2023-01-27T15:32:05.347Z,6.3
2023-01-27T15:33:22.286Z,6.3
2023-01-27T15:34:39.226Z,6.3
2023-01-27T15:35:56.258Z,6.3
2023-01-27T15:37:13.230Z,6.3
2023-01-27T15:38:30.259Z,6.3
2023-01-27T15:39:52.752Z,6.2
2023-01-27T15:41:04.271Z,6.1
2023-01-27T15:42:21.252Z,6
2023-01-27T15:43:38.263Z,5.9
2023-01-27T15:44:55.271Z,5.7
2023-01-27T15:46:12.279Z,5.5
2023-01-27T15:47:29.241Z,5.3
2023-01-27T15:48:46.266Z,5.1
2023-01-27T15:50:03.306Z,4.8
2023-01-27T15:51:20.278Z,4.6
2023-01-27T15:52:37.272Z,4.5
2023-01-27T15:53:54.262Z,4.6
2023-01-27T15:55:11.743Z,4.7
2023-01-27T15:56:28.278Z,4.8
2023-01-27T15:57:45.273Z,5
2023-01-27T15:59:02.283Z,5.2
2023-01-27T16:00:19.267Z,5.3
2023-01-27T16:01:36.292Z,5.3
2023-01-27T16:02:53.264Z,5.4
2023-01-27T16:04:10.274Z,5.5
2023-01-27T16:05:27.297Z,5.5
2023-01-27T16:06:44.304Z,5.6
2023-01-27T16:08:01.273Z,5.6
2023-01-27T16:09:18.297Z,5.6
2023-01-27T16:10:35.290Z,5.6
2023-01-27T16:11:52.283Z,5.6
2023-01-27T16:13:09.267Z,5.6
2023-01-27T16:14:26.333Z,5.6
2023-01-27T16:15:43.296Z,5.6
2023-01-27T16:17:00.289Z,5.6
2023-01-27T16:18:17.285Z,5.6
2023-01-27T16:19:34.371Z,5.7
2023-01-27T16:20:51.354Z,5.7
2023-01-27T16:22:08.337Z,5.8
2023-01-27T16:23:25.296Z,5.8
2023-01-27T16:24:42.326Z,5.6
2023-01-27T16:25:59.295Z,5.4
2023-01-27T16:27:16.287Z,5.3
2023-01-27T16:28:33.317Z,5.3
2023-01-27T16:29:50.338Z,5.4
2023-01-27T16:31:07.307Z,5.4
2023-01-27T16:32:24.308Z,5.3
2023-01-27T16:33:41.348Z,5.2
2023-01-27T16:34:58.308Z,5.1
2023-01-27T16:36:15.438Z,4.9
2023-01-27T16:37:32.337Z,4.8
2023-01-27T16:38:49.335Z,4.6
2023-01-27T16:40:06.343Z,4.6
2023-01-27T16:41:23.343Z,4.6
2023-01-27T16:42:40.314Z,4.6
2023-01-27T16:43:57.457Z,4.6
2023-01-27T16:45:14.646Z,4.7
2023-01-27T16:46:31.343Z,4.8
2023-01-27T16:47:48.332Z,5
2023-01-27T16:49:05.319Z,5.2
2023-01-27T16:50:22.356Z,5.3
2023-01-27T16:51:39.344Z,5.4
2023-01-27T16:52:56.361Z,5.5
2023-01-27T16:54:13.323Z,5.6
2023-01-27T16:55:30.358Z,5.5
2023-01-27T16:56:47.323Z,5.6
2023-01-27T16:58:04.376Z,5.7
2023-01-27T16:59:21.324Z,5.7
2023-01-27T17:00:38.327Z,5.5
2023-01-27T17:01:55.362Z,5.4
2023-01-27T17:03:12.405Z,5.3
2023-01-27T17:04:29.369Z,5.2
2023-01-27T17:05:46.355Z,5
2023-01-27T17:07:03.452Z,5
2023-01-27T17:08:20.378Z,5
2023-01-27T17:09:37.371Z,4.9
2023-01-27T17:10:54.345Z,4.8
2023-01-27T17:12:11.364Z,4.8
2023-01-27T17:13:28.381Z,4.9
2023-01-27T17:14:45.384Z,5
2023-01-27T17:16:02.375Z,4.9
2023-01-27T17:17:19.372Z,5
2023-01-27T17:18:47.010Z,4.9
2023-01-27T17:19:53.410Z,4.8
2023-01-27T17:21:10.367Z,4.8
2023-01-27T17:22:27.389Z,4.8
2023-01-27T17:23:44.390Z,4.6
2023-01-27T17:25:01.560Z,4.8
2023-01-27T17:26:18.395Z,4.9
2023-01-27T17:27:35.406Z,5.1
2023-01-27T17:28:52.374Z,5.3
2023-01-27T17:30:09.499Z,5.5
2023-01-27T17:31:26.483Z,5.6
2023-01-27T17:32:43.392Z,5.7
2023-01-27T17:34:00.388Z,5.8
2023-01-27T17:35:17.433Z,5.8
2023-01-27T17:36:34.377Z,5.9
2023-01-27T17:37:51.381Z,5.9
2023-01-27T17:39:08.414Z,6
2023-01-27T17:40:25.418Z,6.1
2023-01-27T17:41:42.443Z,6.1
2023-01-27T17:42:59.417Z,6.1
2023-01-27T17:44:16.401Z,6.2
2023-01-27T17:45:33.404Z,6.2
2023-01-27T17:46:50.791Z,6.3
2023-01-27T17:48:07.430Z,6.3
2023-01-27T17:49:24.397Z,6.3